Airports

 

 

Airport Name Latest METAR Visual Conditions
Atlantic City Int. (ACY) KACY 051854Z 12008KT 10SM CLR 10/02 A3035 RMK AO2 SLP276 T01000017 VFR
Baltimore International Airport (BWI) KBWI 051854Z 13007KT 10SM BKN090 BKN250 11/M06 A3031 RMK AO2 SLP265 T01061056 VFR
Washington National Airport (DCA) KDCA 051852Z 15005KT 10SM BKN090 11/M04 A3032 RMK AO2 SLP267 T01111039 VFR
Dulles International Airport (IAD) KIAD 051852Z 15006KT 10SM BKN065 BKN080 10/M04 A3030 RMK AO2 SLP261 T01001044 VFR
Norfolk International Airport (ORF) KORF 051851Z AUTO 05007KT 10SM SCT038 SCT055 13/08 A3026 RMK AO2 SLP247 T01280083 TSNO VFR
Raleigh International Airport (RDU) KRDU 051851Z 10008KT 10SM BKN031 OVC041 16/03 A3022 RMK AO2 SLP233 T01560033 VFR
Richmond International Airport (RIC) KRIC 051854Z 05005KT 10SM SCT070 BKN110 14/00 A3027 RMK AO2 SLP255 T01390000 VFR
Roanoke Regional Airport (ROA) KROA 051854Z 11004KT 10SM OVC046 11/00 A3026 RMK AO2 SLP250 T01060000 VFR